Time;durP1;ratioP1;P1;durP2;ratioP2;P2;SDS_P1;SDS_P2;PMS_P1;PMS_P2;Temp;Humidity;BMP_temperature;BMP_pressure;BME280_temperature;BME280_humidity;BME280_pressure;Samples;Min_cycle;Max_cycle;Signal;HPM_P1;HPM_P2
2023/12/11 00:00:04;;;;;;;10.52;3.20;;;29.60;99.90;;;;;;5021904;28;20221;-74
2023/12/11 00:02:36;;;;;;;9.98;2.88;;;29.60;99.90;;;;;;5023057;28;20215;-75
2023/12/11 00:05:07;;;;;;;9.88;2.80;;;29.70;99.90;;;;;;5010778;28;20278;-78
2023/12/11 00:07:38;;;;;;;8.68;2.92;;;29.70;99.90;;;;;;5012115;28;20278;-80
2023/12/11 00:10:11;;;;;;;10.00;2.50;;;29.60;99.90;;;;;;5010780;28;20692;-76
2023/12/11 00:12:42;;;;;;;9.48;2.60;;;29.60;99.90;;;;;;5009012;28;20628;-82
2023/12/11 00:15:13;;;;;;;10.35;2.63;;;29.60;99.90;;;;;;5014288;28;20191;-87
2023/12/11 00:17:44;;;;;;;11.07;3.00;;;29.60;99.90;;;;;;5014276;28;20187;-77
2023/12/11 00:20:15;;;;;;;11.15;3.20;;;29.30;99.90;;;;;;5013292;28;20218;-74
2023/12/11 00:22:46;;;;;;;13.77;2.80;;;29.20;99.90;;;;;;5012472;28;20302;-84
2023/12/11 00:25:19;;;;;;;9.77;2.20;;;29.20;99.90;;;;;;5013501;28;20197;-78
2023/12/11 00:27:49;;;;;;;7.47;2.53;;;29.10;99.90;;;;;;5011292;28;20201;-85
2023/12/11 00:30:20;;;;;;;10.93;2.50;;;29.10;99.90;;;;;;5013610;28;20197;-84
2023/12/11 00:32:51;;;;;;;11.45;2.08;;;29.10;99.90;;;;;;5013899;28;20230;-81
2023/12/11 00:35:22;;;;;;;12.73;2.88;;;28.90;99.90;;;;;;5008795;28;20274;-85
2023/12/11 00:37:53;;;;;;;8.73;2.30;;;28.80;99.90;;;;;;5012320;28;20695;-82
2023/12/11 00:40:25;;;;;;;11.63;2.55;;;28.80;99.90;;;;;;5009082;28;20214;-83
2023/12/11 00:42:56;;;;;;;9.60;2.70;;;28.70;99.90;;;;;;5006430;28;20283;-77
2023/12/11 00:45:27;;;;;;;9.55;3.33;;;28.70;99.90;;;;;;5008417;28;20413;-84
2023/12/11 00:48:01;;;;;;;12.18;2.38;;;28.80;99.90;;;;;;5011828;28;20270;-75
2023/12/11 00:50:32;;;;;;;9.60;2.58;;;28.80;99.90;;;;;;5007261;28;20189;-76
2023/12/11 00:53:02;;;;;;;11.80;2.30;;;28.80;99.90;;;;;;5010291;28;20711;-76
2023/12/11 00:55:35;;;;;;;8.30;2.17;;;28.80;99.90;;;;;;5012728;28;20187;-75
2023/12/11 00:58:06;;;;;;;9.50;2.60;;;28.80;99.90;;;;;;5012406;28;20191;-75
2023/12/11 01:00:37;;;;;;;7.57;2.17;;;28.90;99.90;;;;;;5011942;28;20273;-75
2023/12/11 01:03:08;;;;;;;10.82;2.05;;;28.80;99.90;;;;;;5010317;28;20215;-75
2023/12/11 01:05:42;;;;;;;9.77;2.28;;;28.70;99.90;;;;;;5009856;28;20190;-76
2023/12/11 01:08:12;;;;;;;11.05;2.30;;;28.50;99.90;;;;;;4998178;28;20191;-79
2023/12/11 01:10:45;;;;;;;12.52;2.50;;;28.40;99.90;;;;;;5011000;28;20647;-75
2023/12/11 01:13:17;;;;;;;9.63;1.98;;;28.60;99.90;;;;;;5010676;28;20889;-80
2023/12/11 01:15:48;;;;;;;9.65;2.28;;;28.70;99.90;;;;;;5010610;28;20190;-74
2023/12/11 01:18:19;;;;;;;9.80;2.00;;;28.70;99.90;;;;;;5009033;28;20196;-83
2023/12/11 01:20:50;;;;;;;8.13;1.90;;;28.70;99.90;;;;;;5019607;28;20198;-74
2023/12/11 01:23:22;;;;;;;10.68;2.60;;;28.60;99.90;;;;;;5010783;28;20298;-73
2023/12/11 01:25:54;;;;;;;10.95;2.65;;;28.50;99.90;;;;;;5002461;28;20274;-77
2023/12/11 01:28:25;;;;;;;7.60;1.80;;;28.50;99.90;;;;;;5012947;28;20206;-75
2023/12/11 01:30:56;;;;;;;7.32;2.33;;;28.60;99.90;;;;;;5013168;28;20669;-76
2023/12/11 01:33:27;;;;;;;9.82;1.90;;;28.70;99.90;;;;;;5008257;28;20282;-74
2023/12/11 01:35:58;;;;;;;9.25;2.33;;;28.60;99.90;;;;;;5012272;28;20191;-74
2023/12/11 01:38:28;;;;;;;8.35;1.80;;;28.50;99.90;;;;;;5011746;28;20281;-77
2023/12/11 01:41:01;;;;;;;10.13;1.80;;;28.40;99.90;;;;;;5009784;28;20184;-82
2023/12/11 01:43:32;;;;;;;10.35;2.15;;;28.40;99.90;;;;;;5007326;28;20262;-82
2023/12/11 01:46:07;;;;;;;12.65;2.22;;;28.50;99.90;;;;;;5012262;28;20702;-77
2023/12/11 01:48:38;;;;;;;8.82;1.98;;;28.50;99.90;;;;;;5007400;28;20317;-74
2023/12/11 01:51:10;;;;;;;9.73;2.10;;;28.50;99.90;;;;;;5013056;28;20199;-80
2023/12/11 01:53:42;;;;;;;9.95;2.10;;;28.60;99.90;;;;;;5012509;28;20278;-84
2023/12/11 01:56:16;;;;;;;7.80;1.90;;;28.60;99.90;;;;;;5012670;28;20278;-79
2023/12/11 01:58:47;;;;;;;8.02;1.85;;;28.70;99.90;;;;;;5012914;28;20225;-83
2023/12/11 02:01:19;;;;;;;7.85;1.80;;;28.70;99.90;;;;;;5012230;28;20202;-76
2023/12/11 02:03:50;;;;;;;9.50;2.10;;;28.70;99.90;;;;;;5012698;28;20223;-84
2023/12/11 02:06:21;;;;;;;11.65;2.17;;;28.80;99.90;;;;;;5012522;28;20197;-76
2023/12/11 02:08:52;;;;;;;9.20;2.08;;;28.60;99.90;;;;;;5011441;28;20195;-89
2023/12/11 02:11:24;;;;;;;11.02;2.03;;;28.60;99.90;;;;;;5016214;28;20273;-78
2023/12/11 02:13:55;;;;;;;12.25;2.03;;;28.60;99.90;;;;;;5016617;28;20698;-79
2023/12/11 02:16:26;;;;;;;8.60;1.85;;;28.60;99.90;;;;;;5015576;28;20282;-74
2023/12/11 02:18:57;;;;;;;9.32;2.00;;;28.60;99.90;;;;;;5015513;28;20187;-78
2023/12/11 02:21:30;;;;;;;9.95;2.35;;;28.40;99.90;;;;;;5014111;28;20230;-82
2023/12/11 02:24:08;;;;;;;7.57;2.05;;;28.50;99.90;;;;;;5013114;28;20225;-78
2023/12/11 02:26:41;;;;;;;7.93;2.00;;;28.50;99.90;;;;;;5011341;28;20199;-82
2023/12/11 02:29:12;;;;;;;8.63;2.72;;;28.30;99.90;;;;;;5000514;28;20271;-75
2023/12/11 02:31:43;;;;;;;6.88;1.95;;;28.20;99.90;;;;;;4996242;28;20279;-75
2023/12/11 02:34:13;;;;;;;6.78;2.63;;;28.20;99.90;;;;;;4995477;28;20234;-78
2023/12/11 02:36:44;;;;;;;6.70;2.83;;;28.10;99.90;;;;;;5007589;28;20274;-76
2023/12/11 02:39:15;;;;;;;8.38;3.08;;;28.00;99.90;;;;;;5014568;28;20273;-74
2023/12/11 02:41:48;;;;;;;9.95;3.20;;;28.00;99.90;;;;;;5011991;28;20285;-74
2023/12/11 02:44:22;;;;;;;11.65;3.50;;;28.00;99.90;;;;;;5014938;28;20230;-75
2023/12/11 02:46:52;;;;;;;9.48;3.50;;;27.90;99.90;;;;;;5006988;28;20194;-85
2023/12/11 02:49:23;;;;;;;13.40;4.82;;;27.90;99.90;;;;;;5001246;28;20706;-80
2023/12/11 02:51:54;;;;;;;12.00;4.05;;;27.70;99.90;;;;;;5015110;28;20553;-83
2023/12/11 02:54:25;;;;;;;12.52;3.88;;;27.70;99.90;;;;;;5011003;28;20214;-78
2023/12/11 02:56:58;;;;;;;11.65;3.80;;;27.60;99.90;;;;;;5014963;28;20612;-82
2023/12/11 02:59:28;;;;;;;12.57;3.80;;;27.60;99.90;;;;;;5014875;28;20218;-80
2023/12/11 03:01:59;;;;;;;13.55;4.38;;;27.90;99.90;;;;;;5015150;28;20196;-79
2023/12/11 03:04:30;;;;;;;9.35;4.00;;;27.90;99.90;;;;;;5014964;28;20293;-81
2023/12/11 03:07:01;;;;;;;14.07;4.30;;;27.90;99.90;;;;;;5025822;28;20617;-79
2023/12/11 03:09:32;;;;;;;11.65;3.72;;;27.90;99.90;;;;;;5035177;28;20282;-75
2023/12/11 03:12:05;;;;;;;12.70;3.50;;;28.00;99.90;;;;;;5032166;28;20901;-75
2023/12/11 03:14:35;;;;;;;9.75;2.92;;;28.00;99.90;;;;;;5014845;28;20282;-78
2023/12/11 03:17:06;;;;;;;8.23;3.10;;;28.00;99.90;;;;;;5008728;28;20192;-79
2023/12/11 03:19:37;;;;;;;10.35;2.78;;;28.00;99.90;;;;;;4996270;28;20192;-75
2023/12/11 03:22:11;;;;;;;8.10;2.65;;;28.00;99.90;;;;;;5002604;28;20284;-75
2023/12/11 03:24:41;;;;;;;7.88;2.60;;;27.90;99.90;;;;;;5014306;28;20615;-73
2023/12/11 03:27:14;;;;;;;8.85;2.40;;;27.90;99.90;;;;;;5002691;28;20195;-75
2023/12/11 03:29:45;;;;;;;11.30;2.50;;;27.90;99.90;;;;;;5012125;28;20218;-76
2023/12/11 03:32:16;;;;;;;8.32;2.42;;;27.80;99.90;;;;;;5015161;28;20201;-76
2023/12/11 03:34:47;;;;;;;9.10;2.30;;;27.70;99.90;;;;;;5014610;28;20194;-86
2023/12/11 03:37:17;;;;;;;8.73;2.30;;;27.60;99.90;;;;;;5015020;28;20195;-77
2023/12/11 03:39:48;;;;;;;12.38;2.53;;;27.40;99.90;;;;;;5012778;28;20621;-76
2023/12/11 03:42:21;;;;;;;7.53;2.20;;;27.50;99.90;;;;;;5015219;28;20651;-75
2023/12/11 03:44:52;;;;;;;7.15;2.50;;;27.50;99.90;;;;;;5014900;28;20258;-77
2023/12/11 03:47:23;;;;;;;11.52;2.50;;;27.30;99.90;;;;;;5014678;28;20274;-75
2023/12/11 03:49:54;;;;;;;8.77;2.00;;;27.20;99.90;;;;;;5011646;28;20202;-74
2023/12/11 03:52:25;;;;;;;10.00;2.13;;;27.20;99.90;;;;;;5000131;28;20192;-77
2023/12/11 03:54:56;;;;;;;6.93;2.22;;;27.20;99.90;;;;;;5000520;28;20277;-76
2023/12/11 03:57:28;;;;;;;8.88;2.30;;;27.20;99.90;;;;;;5014612;28;20286;-76
2023/12/11 03:59:59;;;;;;;9.13;2.03;;;27.20;99.90;;;;;;5011264;28;20195;-79
2023/12/11 04:02:30;;;;;;;10.07;2.17;;;27.10;99.90;;;;;;5010297;28;20878;-77
2023/12/11 04:05:01;;;;;;;8.68;2.20;;;27.10;99.90;;;;;;5011756;28;20199;-82
2023/12/11 04:07:32;;;;;;;7.47;2.20;;;27.20;99.90;;;;;;5011568;28;20238;-84
2023/12/11 04:10:03;;;;;;;11.77;2.47;;;27.20;99.90;;;;;;5013979;28;20282;-75
2023/12/11 04:12:37;;;;;;;8.70;2.38;;;27.20;99.90;;;;;;5011780;28;20274;-86
2023/12/11 04:15:08;;;;;;;8.93;2.35;;;27.10;99.90;;;;;;5013446;28;20187;-76
2023/12/11 04:17:42;;;;;;;7.35;2.53;;;27.10;99.90;;;;;;5013704;28;20191;-84
2023/12/11 04:20:13;;;;;;;5.90;2.67;;;27.20;99.90;;;;;;5013883;28;20222;-82
2023/12/11 04:22:44;;;;;;;10.25;2.38;;;27.20;99.90;;;;;;5011576;28;20204;-84
2023/12/11 04:25:15;;;;;;;10.60;2.42;;;27.20;99.90;;;;;;5004816;28;20209;-78
2023/12/11 04:27:47;;;;;;;8.30;2.20;;;27.10;99.90;;;;;;5013500;28;20195;-75
2023/12/11 04:30:18;;;;;;;6.82;1.90;;;27.00;99.90;;;;;;5013804;28;20256;-76
2023/12/11 04:32:49;;;;;;;7.03;2.20;;;26.80;99.90;;;;;;5013412;28;20282;-76
2023/12/11 04:35:20;;;;;;;8.23;2.40;;;26.80;99.90;;;;;;5012794;28;20269;-85
2023/12/11 04:37:51;;;;;;;10.13;2.42;;;26.80;99.90;;;;;;5014044;28;20245;-77
2023/12/11 04:40:22;;;;;;;7.00;2.33;;;27.00;99.90;;;;;;5014017;28;20193;-79
2023/12/11 04:42:54;;;;;;;6.32;1.95;;;27.00;99.90;;;;;;5013609;28;20209;-87
2023/12/11 04:45:25;;;;;;;11.95;2.40;;;27.00;99.90;;;;;;5013785;28;20309;-82
2023/12/11 04:47:56;;;;;;;9.23;2.22;;;27.00;99.90;;;;;;5013597;28;20321;-76
2023/12/11 04:50:27;;;;;;;7.85;2.08;;;27.00;99.90;;;;;;5013918;28;20273;-76
2023/12/11 04:52:57;;;;;;;7.22;2.22;;;27.00;99.90;;;;;;5013719;28;20191;-77
2023/12/11 04:55:28;;;;;;;7.07;2.25;;;27.00;99.90;;;;;;5013777;28;20231;-76
2023/12/11 04:58:01;;;;;;;8.50;2.20;;;27.00;99.90;;;;;;5013538;28;20285;-81
2023/12/11 05:00:32;;;;;;;7.05;1.80;;;27.00;99.90;;;;;;5013758;28;20281;-77
2023/12/11 05:03:09;;;;;;;7.40;2.28;;;26.90;99.90;;;;;;5003807;28;20625;-74
2023/12/11 05:05:40;;;;;;;8.95;2.28;;;26.80;99.90;;;;;;4993931;28;20640;-74
2023/12/11 05:08:11;;;;;;;6.82;2.17;;;26.80;99.90;;;;;;4994011;28;20715;-74
2023/12/11 05:10:42;;;;;;;6.30;2.10;;;26.80;99.90;;;;;;4994178;28;20203;-84
2023/12/11 05:13:15;;;;;;;8.98;2.10;;;26.90;99.90;;;;;;4993820;28;20282;-76
2023/12/11 05:15:46;;;;;;;9.82;2.38;;;26.90;99.90;;;;;;4993924;28;20191;-84
2023/12/11 05:18:17;;;;;;;11.48;2.53;;;26.90;99.90;;;;;;4993936;28;20202;-83
2023/12/11 05:20:48;;;;;;;7.60;1.83;;;26.80;99.90;;;;;;4994297;28;20622;-82
2023/12/11 05:23:18;;;;;;;11.40;2.35;;;26.80;99.90;;;;;;4993976;28;20301;-77
2023/12/11 05:25:49;;;;;;;9.82;2.17;;;26.80;99.90;;;;;;4993922;28;20213;-80
2023/12/11 05:28:22;;;;;;;7.10;2.13;;;26.80;99.90;;;;;;4993917;28;20279;-76
2023/12/11 05:30:53;;;;;;;9.00;2.10;;;26.80;99.90;;;;;;4994228;28;20279;-85
2023/12/11 05:33:23;;;;;;;8.43;2.10;;;26.70;99.90;;;;;;4994051;28;20640;-78
2023/12/11 05:35:54;;;;;;;8.35;2.20;;;26.70;99.90;;;;;;4997109;28;20203;-84
2023/12/11 05:38:25;;;;;;;13.02;2.28;;;26.50;99.90;;;;;;4995658;28;20231;-75
2023/12/11 05:40:56;;;;;;;12.95;2.28;;;26.30;99.90;;;;;;5013188;28;20278;-76
2023/12/11 05:43:29;;;;;;;8.05;2.53;;;26.20;99.90;;;;;;5014883;28;20304;-79
2023/12/11 05:45:59;;;;;;;11.23;2.45;;;26.30;99.90;;;;;;5017313;28;20191;-81
2023/12/11 05:48:31;;;;;;;7.57;2.28;;;26.20;99.90;;;;;;5016975;28;20326;-76
2023/12/11 05:51:01;;;;;;;13.70;2.97;;;26.20;99.90;;;;;;5017218;28;20282;-75
2023/12/11 05:53:32;;;;;;;10.00;2.20;;;26.20;99.90;;;;;;5017466;28;20274;-75
2023/12/11 05:56:03;;;;;;;10.88;2.67;;;26.20;99.90;;;;;;5016718;28;20611;-76
2023/12/11 05:58:36;;;;;;;7.55;2.35;;;26.30;99.90;;;;;;5016979;28;20227;-76
2023/12/11 06:01:07;;;;;;;9.38;2.45;;;26.30;99.90;;;;;;5017012;28;20227;-78
2023/12/11 06:03:38;;;;;;;10.27;2.20;;;26.20;99.90;;;;;;5017136;28;20269;-78
2023/12/11 06:06:16;;;;;;;12.20;2.83;;;26.10;99.90;;;;;;5016730;28;20201;-77
2023/12/11 06:08:47;;;;;;;10.15;2.83;;;26.00;99.90;;;;;;5016804;28;20649;-77
2023/12/11 06:11:18;;;;;;;12.38;2.60;;;25.90;99.90;;;;;;5016476;28;20562;-76
2023/12/11 06:13:50;;;;;;;10.43;2.72;;;25.90;99.90;;;;;;5016763;28;20282;-77
2023/12/11 06:16:21;;;;;;;9.85;2.00;;;25.90;99.90;;;;;;5016638;28;20281;-80
2023/12/11 06:18:52;;;;;;;11.63;2.63;;;25.90;99.90;;;;;;5016610;28;20195;-78
2023/12/11 06:21:24;;;;;;;11.07;2.33;;;25.90;99.90;;;;;;5016794;28;20218;-78
2023/12/11 06:23:55;;;;;;;9.85;1.98;;;25.80;99.90;;;;;;5016173;28;20219;-85
2023/12/11 06:26:32;;;;;;;12.98;2.58;;;25.70;99.90;;;;;;5016425;28;20197;-78
2023/12/11 06:29:05;;;;;;;10.80;2.05;;;25.70;99.90;;;;;;5016300;28;20191;-83
2023/12/11 06:31:36;;;;;;;7.28;2.30;;;25.60;99.90;;;;;;5016400;28;20277;-76
2023/12/11 06:34:06;;;;;;;7.82;2.03;;;25.60;99.90;;;;;;5016263;28;20639;-80
2023/12/11 06:36:37;;;;;;;7.32;2.05;;;25.60;99.90;;;;;;5016318;28;20191;-80
2023/12/11 06:39:08;;;;;;;6.00;1.95;;;25.50;99.90;;;;;;5015676;28;20197;-77
2023/12/11 06:41:39;;;;;;;9.77;2.08;;;25.50;99.90;;;;;;5015443;28;20193;-76
2023/12/11 06:44:12;;;;;;;8.63;1.98;;;25.40;99.90;;;;;;5015236;28;20260;-80
2023/12/11 06:46:41;;;;;;;6.75;1.98;;;25.30;99.90;;;;;;5015483;28;20666;-76
2023/12/11 06:49:12;;;;;;;8.93;1.85;;;25.20;99.90;;;;;;5014643;28;20238;-77
2023/12/11 06:51:43;;;;;;;7.78;1.77;;;25.20;99.90;;;;;;5015951;28;20234;-75
2023/12/11 06:54:14;;;;;;;8.77;2.20;;;25.20;99.90;;;;;;5015281;28;20643;-75
2023/12/11 06:56:45;;;;;;;8.20;1.98;;;25.20;99.90;;;;;;5015712;28;20191;-75
2023/12/11 06:59:18;;;;;;;9.75;2.00;;;25.20;99.90;;;;;;5015953;28;20214;-75
2023/12/11 07:01:48;;;;;;;8.77;1.90;;;25.20;99.90;;;;;;5015862;28;20277;-75
2023/12/11 07:04:19;;;;;;;5.88;2.00;;;25.20;99.90;;;;;;5015686;28;20225;-81
2023/12/11 07:06:50;;;;;;;7.68;2.85;;;25.20;99.90;;;;;;5015695;28;20278;-80
2023/12/11 07:09:21;;;;;;;10.13;2.58;;;25.20;99.90;;;;;;5015571;28;20282;-74
2023/12/11 07:11:52;;;;;;;5.60;2.35;;;25.30;99.90;;;;;;5015961;28;20282;-78
2023/12/11 07:14:25;;;;;;;8.10;2.15;;;25.30;99.90;;;;;;5015522;28;20639;-75
2023/12/11 07:16:56;;;;;;;7.97;2.30;;;25.30;99.90;;;;;;5015570;28;20651;-75
2023/12/11 07:19:27;;;;;;;6.93;2.25;;;25.30;99.90;;;;;;5015477;28;20195;-74
2023/12/11 07:21:57;;;;;;;7.10;2.33;;;25.30;99.90;;;;;;5015267;28;20273;-74
2023/12/11 07:24:28;;;;;;;13.85;4.15;;;25.40;99.90;;;;;;5015300;28;20254;-76
2023/12/11 07:26:59;;;;;;;10.80;4.68;;;25.40;99.90;;;;;;5015427;28;20565;-75
2023/12/11 07:29:32;;;;;;;10.77;5.03;;;25.30;99.90;;;;;;5015321;28;20199;-79
2023/12/11 07:32:03;;;;;;;11.68;6.53;;;25.40;99.90;;;;;;5014555;28;20226;-75
2023/12/11 07:34:33;;;;;;;14.95;7.75;;;25.30;99.90;;;;;;5010163;28;20284;-78
2023/12/11 07:37:07;;;;;;;12.95;7.97;;;25.20;99.90;;;;;;5010486;28;20273;-85
2023/12/11 07:39:38;;;;;;;16.67;8.52;;;25.10;99.90;;;;;;5012011;28;20206;-78
2023/12/11 07:42:09;;;;;;;14.20;8.45;;;25.10;99.90;;;;;;5013328;28;20258;-76
2023/12/11 07:44:42;;;;;;;15.23;8.68;;;25.00;99.90;;;;;;5003966;28;20373;-75
2023/12/11 07:47:13;;;;;;;15.40;8.70;;;24.90;99.90;;;;;;5010216;28;20286;-77
2023/12/11 07:49:44;;;;;;;19.27;9.43;;;24.90;99.90;;;;;;5012559;28;20274;-75
2023/12/11 07:52:15;;;;;;;13.48;9.40;;;24.90;99.90;;;;;;5010713;28;20278;-76
2023/12/11 07:54:46;;;;;;;17.38;9.68;;;24.80;99.90;;;;;;5014917;28;20570;-75
2023/12/11 07:57:16;;;;;;;13.77;9.75;;;24.80;99.90;;;;;;5013846;28;20198;-75
2023/12/11 07:59:49;;;;;;;15.70;9.80;;;24.70;99.90;;;;;;5014125;28;20226;-76
2023/12/11 08:02:20;;;;;;;14.95;9.05;;;24.70;99.90;;;;;;5003515;28;20290;-75
2023/12/11 08:04:51;;;;;;;14.20;8.65;;;24.70;99.90;;;;;;5006211;28;20298;-75
2023/12/11 08:07:22;;;;;;;14.43;6.95;;;24.70;99.90;;;;;;5006002;28;20650;-76
2023/12/11 08:09:52;;;;;;;14.45;6.65;;;24.70;99.90;;;;;;5013754;28;20572;-79
2023/12/11 08:12:25;;;;;;;12.32;5.53;;;24.70;99.90;;;;;;5011935;28;20197;-79
2023/12/11 08:14:57;;;;;;;10.10;4.70;;;24.60;99.90;;;;;;5014000;28;20295;-75
2023/12/11 08:17:28;;;;;;;13.32;3.83;;;24.60;99.90;;;;;;5013107;28;20723;-76
2023/12/11 08:19:59;;;;;;;11.38;2.80;;;24.50;99.90;;;;;;5012251;28;20298;-77
2023/12/11 08:22:30;;;;;;;11.15;3.15;;;24.40;99.90;;;;;;5013910;28;20290;-75
2023/12/11 08:25:00;;;;;;;5.45;2.10;;;24.40;99.90;;;;;;5013717;28;20277;-75
2023/12/11 08:27:31;;;;;;;7.28;1.75;;;24.40;99.90;;;;;;5012446;28;20699;-76
2023/12/11 08:30:04;;;;;;;8.60;2.30;;;24.40;99.90;;;;;;5008683;28;20231;-76
2023/12/11 08:32:35;;;;;;;10.07;1.95;;;24.40;99.90;;;;;;5007753;28;20230;-75
2023/12/11 08:35:06;;;;;;;7.38;1.98;;;24.40;99.90;;;;;;5011625;28;20207;-76
2023/12/11 08:37:37;;;;;;;6.80;1.80;;;24.40;99.90;;;;;;5007864;28;20203;-75
2023/12/11 08:40:08;;;;;;;7.60;1.85;;;24.40;99.90;;;;;;5012167;28;20305;-84
2023/12/11 08:42:40;;;;;;;8.63;2.20;;;24.40;99.90;;;;;;5012218;28;20201;-76
2023/12/11 08:45:13;;;;;;;8.52;1.80;;;24.40;99.90;;;;;;5013354;28;20234;-84
2023/12/11 08:47:44;;;;;;;7.78;2.10;;;24.40;99.90;;;;;;5009303;28;20310;-75
2023/12/11 08:50:15;;;;;;;8.80;2.05;;;24.30;99.90;;;;;;5012500;28;20277;-84
2023/12/11 08:52:47;;;;;;;13.27;2.40;;;24.30;99.90;;;;;;5008978;28;20627;-76
2023/12/11 08:55:17;;;;;;;10.45;2.13;;;24.30;99.90;;;;;;5013639;28;20211;-76
2023/12/11 08:57:51;;;;;;;13.23;2.13;;;24.30;99.90;;;;;;5009828;28;20259;-75
2023/12/11 09:00:24;;;;;;;5.97;1.63;;;24.30;99.90;;;;;;5010647;28;20195;-75
2023/12/11 09:02:55;;;;;;;14.93;2.10;;;24.30;99.90;;;;;;5012970;28;20282;-76
2023/12/11 09:05:25;;;;;;;9.88;2.13;;;24.30;99.90;;;;;;5011974;28;20697;-76
2023/12/11 09:07:57;;;;;;;10.40;2.45;;;24.40;99.90;;;;;;4999546;28;20202;-75
2023/12/11 09:10:28;;;;;;;10.70;1.88;;;24.40;99.90;;;;;;5012950;28;20667;-85
2023/12/11 09:12:59;;;;;;;12.40;2.08;;;24.40;99.90;;;;;;5010345;28;20285;-85
2023/12/11 09:15:32;;;;;;;9.88;1.70;;;24.40;99.90;;;;;;5010107;28;20205;-77
2023/12/11 09:18:02;;;;;;;7.45;2.00;;;24.40;99.90;;;;;;5013279;28;20199;-78
2023/12/11 09:20:33;;;;;;;12.85;2.30;;;24.40;99.90;;;;;;5014397;28;20205;-80
2023/12/11 09:23:39;;;;;;;8.27;1.80;;;24.40;99.90;;;;;;5015066;28;20197;-80
2023/12/11 09:26:10;;;;;;;9.80;2.25;;;24.40;99.90;;;;;;5016730;28;20769;-84
2023/12/11 09:28:41;;;;;;;9.45;2.10;;;24.40;99.90;;;;;;5013509;28;20281;-80
2023/12/11 09:31:13;;;;;;;10.65;1.92;;;24.40;99.90;;;;;;5014121;28;20226;-81
2023/12/11 09:33:44;;;;;;;6.65;1.98;;;24.30;99.90;;;;;;5016078;28;20293;-76
2023/12/11 09:36:15;;;;;;;13.25;2.03;;;24.30;99.90;;;;;;5012922;28;20283;-86
2023/12/11 09:38:47;;;;;;;10.15;2.40;;;24.40;99.90;;;;;;5010716;28;20199;-87
2023/12/11 09:41:18;;;;;;;9.98;2.28;;;24.40;99.90;;;;;;5011124;28;20207;-75
2023/12/11 09:43:50;;;;;;;12.18;2.33;;;24.30;99.90;;;;;;5010876;28;20314;-76
2023/12/11 09:46:24;;;;;;;8.65;1.80;;;24.30;99.90;;;;;;5016738;28;20296;-75
2023/12/11 09:48:56;;;;;;;13.00;2.25;;;24.40;99.90;;;;;;5016237;28;20230;-81
2023/12/11 09:51:27;;;;;;;10.85;2.15;;;24.40;99.90;;;;;;5007425;28;20290;-76
2023/12/11 09:53:58;;;;;;;9.68;2.20;;;24.40;99.90;;;;;;5014664;28;20285;-76
2023/12/11 09:56:29;;;;;;;17.35;2.30;;;24.40;99.90;;;;;;5015250;28;20201;-80
2023/12/11 09:59:03;;;;;;;13.38;2.20;;;24.40;99.90;;;;;;5015144;28;20677;-76
2023/12/11 10:01:36;;;;;;;12.18;1.98;;;24.40;99.90;;;;;;5015021;28;20282;-75
2023/12/11 10:04:08;;;;;;;11.25;2.30;;;24.30;99.90;;;;;;5015538;28;20286;-80
2023/12/11 10:06:39;;;;;;;14.25;2.17;;;24.30;99.90;;;;;;5012149;28;20310;-82
2023/12/11 10:09:10;;;;;;;10.63;2.00;;;24.30;99.90;;;;;;5009761;28;20281;-78
2023/12/11 10:11:41;;;;;;;12.25;2.33;;;24.30;99.90;;;;;;5006147;28;20226;-76
2023/12/11 10:14:15;;;;;;;9.10;2.20;;;24.30;99.90;;;;;;5015846;28;20282;-78
2023/12/11 10:16:48;;;;;;;11.75;2.15;;;24.30;99.90;;;;;;5015496;28;20281;-75
2023/12/11 10:19:19;;;;;;;13.45;2.38;;;24.30;99.90;;;;;;5015725;28;20195;-78
2023/12/11 10:21:50;;;;;;;12.85;2.30;;;24.30;99.90;;;;;;5011533;28;20190;-74
2023/12/11 10:24:22;;;;;;;12.48;2.17;;;24.20;99.90;;;;;;5014749;28;20206;-74
2023/12/11 10:26:59;;;;;;;8.25;2.20;;;24.30;99.90;;;;;;5013900;28;20321;-75
2023/12/11 10:29:30;;;;;;;13.52;2.50;;;24.20;99.90;;;;;;5014675;28;20199;-77
2023/12/11 10:32:07;;;;;;;11.07;2.15;;;24.30;99.90;;;;;;5013721;28;20218;-76
2023/12/11 10:34:45;;;;;;;8.98;2.20;;;24.20;99.90;;;;;;5015435;28;20195;-72
2023/12/11 10:37:17;;;;;;;11.18;2.53;;;24.20;99.90;;;;;;5011578;28;20195;-72
2023/12/11 10:39:56;;;;;;;15.15;2.17;;;24.20;99.90;;;;;;5012240;28;20806;-76
2023/12/11 10:42:27;;;;;;;9.20;1.83;;;24.20;99.90;;;;;;5009497;28;20290;-78
2023/12/11 10:44:58;;;;;;;7.63;1.90;;;24.20;99.90;;;;;;5015628;28;20223;-75
2023/12/11 10:47:34;;;;;;;15.15;2.22;;;24.20;99.90;;;;;;5014898;28;20235;-75
2023/12/11 10:50:06;;;;;;;9.98;1.90;;;24.20;99.90;;;;;;5013661;28;20570;-75
2023/12/11 10:52:41;;;;;;;11.02;2.20;;;24.30;99.90;;;;;;5014995;28;20279;-84
2023/12/11 10:55:12;;;;;;;12.55;2.00;;;24.20;99.90;;;;;;5015562;28;20211;-75
2023/12/11 10:57:43;;;;;;;10.25;1.80;;;24.20;99.90;;;;;;5015171;28;20203;-76
2023/12/11 11:00:15;;;;;;;17.30;2.60;;;24.30;99.90;;;;;;5013406;28;20203;-75
2023/12/11 11:02:50;;;;;;;14.82;2.70;;;24.20;99.90;;;;;;5014803;28;20203;-73
2023/12/11 11:05:22;;;;;;;14.52;2.30;;;24.20;99.90;;;;;;5013044;28;20210;-84
2023/12/11 11:08:03;;;;;;;10.98;2.08;;;24.20;99.90;;;;;;5008539;28;20203;-76
2023/12/11 11:10:41;;;;;;;10.75;2.08;;;24.20;99.90;;;;;;5013981;28;20277;-79
2023/12/11 11:13:19;;;;;;;9.13;2.10;;;24.20;99.90;;;;;;5014478;28;20289;-76
2023/12/11 11:15:55;;;;;;;8.60;2.20;;;24.20;99.90;;;;;;5014712;28;20206;-80
2023/12/11 11:18:28;;;;;;;14.93;2.38;;;24.20;99.90;;;;;;5014916;28;20245;-75
2023/12/11 11:21:15;;;;;;;9.38;2.08;;;24.10;99.90;;;;;;5014279;28;20198;-79
2023/12/11 11:23:47;;;;;;;15.63;2.63;;;24.20;99.90;;;;;;5014633;28;20201;-75
2023/12/11 11:26:35;;;;;;;11.10;2.50;;;24.10;99.90;;;;;;5015026;28;20226;-78
2023/12/11 11:29:06;;;;;;;8.40;2.30;;;24.10;99.90;;;;;;5008292;28;20214;-76
2023/12/11 11:31:53;;;;;;;11.88;2.20;;;24.10;99.90;;;;;;5013732;28;20187;-75
2023/12/11 11:34:47;;;;;;;12.68;2.50;;;24.00;99.90;;;;;;5013151;28;20191;-74
2023/12/11 11:37:20;;;;;;;11.02;2.40;;;24.00;99.90;;;;;;5014780;28;20195;-75
2023/12/11 11:40:02;;;;;;;10.23;1.77;;;24.00;99.90;;;;;;5014992;28;20191;-81
2023/12/11 11:42:34;;;;;;;14.70;2.80;;;24.00;99.90;;;;;;5011484;28;20209;-74
2023/12/11 11:45:07;;;;;;;10.80;2.17;;;24.00;99.90;;;;;;5014833;28;20694;-79
2023/12/11 11:47:38;;;;;;;14.65;2.05;;;24.00;99.90;;;;;;4995852;28;20730;-78
2023/12/11 11:50:12;;;;;;;12.85;2.67;;;24.00;99.90;;;;;;5011025;28;20282;-86
2023/12/11 11:52:45;;;;;;;9.15;1.90;;;23.90;99.90;;;;;;5014363;28;20634;-78
2023/12/11 11:55:30;;;;;;;9.90;2.22;;;24.00;99.90;;;;;;5002260;28;20196;-82
2023/12/11 11:58:01;;;;;;;13.77;2.05;;;23.90;99.90;;;;;;5012366;28;20214;-90
2023/12/11 12:00:33;;;;;;;10.15;2.00;;;23.90;99.90;;;;;;4995071;28;20667;-77
2023/12/11 12:03:05;;;;;;;12.70;2.40;;;23.90;99.90;;;;;;5011261;28;20266;-75
2023/12/11 12:05:38;;;;;;;10.25;2.13;;;23.90;99.90;;;;;;5014057;28;20603;-76
2023/12/11 12:08:10;;;;;;;9.90;2.10;;;23.90;99.90;;;;;;5011554;28;20202;-83
2023/12/11 12:10:41;;;;;;;15.23;2.40;;;24.00;99.90;;;;;;5012532;28;20190;-78
2023/12/11 12:13:12;;;;;;;9.05;2.22;;;23.90;99.90;;;;;;5013891;28;20199;-82
2023/12/11 12:15:46;;;;;;;15.98;2.70;;;23.90;99.90;;;;;;5014096;28;20213;-76
2023/12/11 12:18:20;;;;;;;11.65;2.40;;;23.90;99.90;;;;;;4995692;28;20663;-83
2023/12/11 12:21:05;;;;;;;13.13;2.45;;;23.90;99.90;;;;;;4999771;28;20289;-82
2023/12/11 12:23:36;;;;;;;11.82;2.10;;;23.90;99.90;;;;;;5005527;28;20230;-86
2023/12/11 12:26:08;;;;;;;11.75;2.17;;;23.90;99.90;;;;;;5014045;28;20219;-81
2023/12/11 12:28:39;;;;;;;9.65;2.33;;;23.80;99.90;;;;;;5014002;28;20234;-81
2023/12/11 12:31:10;;;;;;;14.02;2.50;;;23.90;99.90;;;;;;5008712;28;20191;-85
2023/12/11 12:33:41;;;;;;;14.38;2.47;;;23.80;99.90;;;;;;5007293;28;20198;-77
2023/12/11 12:36:13;;;;;;;10.40;2.30;;;23.80;99.90;;;;;;5006229;28;20186;-75
2023/12/11 12:38:44;;;;;;;13.50;2.33;;;23.80;99.90;;;;;;5014108;28;20191;-74
2023/12/11 12:41:15;;;;;;;10.38;2.38;;;23.80;99.90;;;;;;5013837;28;20194;-80
2023/12/11 12:43:46;;;;;;;7.80;2.03;;;23.80;99.90;;;;;;5005029;28;20215;-84
2023/12/11 12:46:17;;;;;;;8.60;2.30;;;23.80;99.90;;;;;;4994160;28;20218;-75
2023/12/11 12:48:48;;;;;;;10.07;1.83;;;23.80;99.90;;;;;;4995219;28;20234;-74
2023/12/11 12:51:20;;;;;;;9.07;2.08;;;23.80;99.90;;;;;;4994166;28;20204;-74
2023/12/11 12:53:51;;;;;;;10.25;2.13;;;23.80;99.90;;;;;;5010119;28;20216;-87
2023/12/11 12:56:23;;;;;;;9.63;2.15;;;23.80;99.90;;;;;;5004677;28;20183;-85
2023/12/11 12:58:55;;;;;;;9.45;2.47;;;23.80;99.90;;;;;;5014189;28;20230;-74
2023/12/11 13:01:26;;;;;;;10.00;2.40;;;23.90;99.90;;;;;;5012340;28;20195;-85
2023/12/11 13:04:02;;;;;;;9.68;2.30;;;23.90;99.90;;;;;;4994084;28;20210;-76